Essington, United Kingdom
Current Conditions -  °F | °C
As of 3:20 AM on Tuesday 21 Oct 2014 (Local Time) from EGBB Reporting Station
Light Rain Light Rain  
Wind Chill: 54°   Ceiling: 2000
Heat Index: 54°   Visibility: 6mi
Dew Point: 50°   Wind: 13mph
Humidity: 88%   Direction: 200°SSW
Pressure: 29.59"   Gusts: NA
Location:  52.63°N, 2.06°W
Report Text: EGBB 210220Z 20011KT 170V240 9999 -RA FEW015 BKN020 12/10 Q1002
Loading
Personal Weather Stations






























Interactive Weather Map
Tropical Storm Tracking
New forecast layout! Learn more

10-Day Weather Forecast

Advertisements
Track Severe Weather on mobile